createdAt,value
2022-10-14T00:01:14.616Z,30.30
2022-10-14T00:03:42.356Z,31.77
2022-10-14T00:06:19.491Z,31.70
2022-10-14T00:08:49.559Z,31.17
2022-10-14T00:11:29.759Z,35.03
2022-10-14T00:14:05.200Z,33.37
2022-10-14T00:16:37.063Z,29.37
2022-10-14T00:19:05.790Z,31.47
2022-10-14T00:21:34.287Z,35.47
2022-10-14T00:24:01.225Z,27.77
2022-10-14T00:26:33.297Z,31.30
2022-10-14T00:29:01.070Z,31.37
2022-10-14T00:31:28.574Z,30.30
2022-10-14T00:33:55.983Z,27.80
2022-10-14T00:36:25.037Z,30.17
2022-10-14T00:38:54.338Z,36.00
2022-10-14T00:41:31.743Z,29.20
2022-10-14T00:44:03.327Z,26.70
2022-10-14T00:46:37.290Z,31.17
2022-10-14T00:49:09.548Z,32.73
2022-10-14T00:51:38.588Z,29.33
2022-10-14T00:54:06.205Z,32.63
2022-10-14T00:56:35.011Z,32.73
2022-10-14T00:59:04.719Z,32.73
2022-10-14T01:01:32.203Z,24.47
2022-10-14T01:03:59.124Z,28.57
2022-10-14T01:06:48.083Z,31.10
2022-10-14T01:09:31.835Z,28.70
2022-10-14T01:12:30.071Z,28.30
2022-10-14T01:15:41.358Z,28.47
2022-10-14T01:18:19.865Z,33.23
2022-10-14T01:21:42.173Z,28.67
2022-10-14T01:24:30.671Z,26.50
2022-10-14T01:27:15.792Z,35.93
2022-10-14T01:30:16.457Z,33.73
2022-10-14T01:33:09.007Z,32.50
2022-10-14T01:36:06.125Z,33.17
2022-10-14T01:38:46.975Z,27.03
2022-10-14T01:41:25.266Z,27.67
2022-10-14T01:43:55.349Z,30.40
2022-10-14T01:46:25.736Z,34.80
2022-10-14T01:49:00.428Z,31.97
2022-10-14T01:51:40.094Z,36.03
2022-10-14T01:54:13.183Z,30.73
2022-10-14T01:56:45.259Z,29.27
2022-10-14T01:59:16.974Z,35.03
2022-10-14T02:01:44.023Z,27.67
2022-10-14T02:04:21.044Z,27.87
2022-10-14T02:07:02.820Z,34.57
2022-10-14T02:09:51.710Z,31.37
2022-10-14T02:12:54.686Z,29.63
2022-10-14T02:15:56.596Z,38.20
2022-10-14T02:18:37.892Z,30.30
2022-10-14T02:21:17.769Z,26.30
2022-10-14T02:24:02.271Z,28.67
2022-10-14T02:26:31.532Z,32.57
2022-10-14T02:29:01.508Z,38.57
2022-10-14T02:31:29.151Z,26.73
2022-10-14T02:34:00.871Z,30.80
2022-10-14T02:36:29.814Z,36.67
2022-10-14T02:39:00.663Z,28.37
2022-10-14T02:41:35.000Z,27.73
2022-10-14T02:44:02.255Z,26.13
2022-10-14T02:46:29.653Z,33.60
2022-10-14T02:48:56.660Z,28.67
2022-10-14T02:51:23.642Z,29.57
2022-10-14T02:53:52.985Z,29.23
2022-10-14T02:56:19.970Z,34.37
2022-10-14T02:58:46.864Z,26.43
2022-10-14T03:01:13.804Z,31.03
2022-10-14T03:03:40.726Z,35.97
2022-10-14T03:06:07.772Z,31.83
2022-10-14T03:08:34.824Z,32.83
2022-10-14T03:11:01.784Z,33.27
2022-10-14T03:13:28.733Z,28.60
2022-10-14T03:15:55.922Z,26.50
2022-10-14T03:18:22.902Z,31.40
2022-10-14T03:20:49.892Z,32.07
2022-10-14T03:23:16.963Z,32.47
2022-10-14T03:25:45.247Z,31.47
2022-10-14T03:28:12.886Z,28.07
2022-10-14T03:30:40.060Z,36.23
2022-10-14T03:33:06.978Z,39.67
2022-10-14T03:35:33.905Z,31.07
2022-10-14T03:38:03.184Z,31.37
2022-10-14T03:40:30.960Z,33.60
2022-10-14T03:43:01.223Z,34.83
2022-10-14T03:45:28.647Z,33.40
2022-10-14T03:47:56.287Z,32.30
2022-10-14T03:50:23.390Z,32.60
2022-10-14T03:52:55.293Z,30.07
2022-10-14T03:55:23.448Z,31.43
2022-10-14T03:57:50.349Z,29.80
2022-10-14T04:00:17.924Z,31.97
2022-10-14T04:02:44.842Z,30.03
2022-10-14T04:05:11.905Z,32.37
2022-10-14T04:07:39.012Z,29.90
2022-10-14T04:10:06.882Z,38.60
2022-10-14T04:12:33.900Z,33.80
2022-10-14T04:15:00.851Z,29.30
2022-10-14T04:17:27.739Z,32.47
2022-10-14T04:19:54.701Z,28.33
2022-10-14T04:22:23.195Z,37.43
2022-10-14T04:24:50.941Z,30.97
2022-10-14T04:27:18.665Z,29.93
2022-10-14T04:29:45.596Z,35.97
2022-10-14T04:32:12.598Z,30.37
2022-10-14T04:34:39.508Z,31.13
2022-10-14T04:37:06.505Z,38.83
2022-10-14T04:39:33.416Z,39.90
2022-10-14T04:42:00.340Z,32.23
2022-10-14T04:44:27.290Z,34.23
2022-10-14T04:46:54.261Z,37.30
2022-10-14T04:49:21.328Z,30.67
2022-10-14T04:51:48.260Z,36.20
2022-10-14T04:54:15.313Z,33.87
2022-10-14T04:56:42.359Z,33.27
2022-10-14T04:59:10.964Z,34.00
2022-10-14T05:01:37.990Z,33.37
2022-10-14T05:04:05.315Z,36.63
2022-10-14T05:06:32.410Z,40.20
2022-10-14T05:08:59.311Z,31.07
2022-10-14T05:11:26.307Z,31.20
2022-10-14T05:13:53.204Z,32.53
2022-10-14T05:16:20.130Z,30.40
2022-10-14T05:18:47.020Z,36.20
2022-10-14T05:21:14.047Z,28.87
2022-10-14T05:23:40.991Z,31.50
2022-10-14T05:26:10.754Z,33.43
2022-10-14T05:28:40.817Z,33.80
2022-10-14T05:31:09.030Z,29.00
2022-10-14T05:33:36.490Z,35.43
2022-10-14T05:36:03.655Z,31.47
2022-10-14T05:38:33.572Z,31.20
2022-10-14T05:41:00.866Z,35.37
2022-10-14T05:43:31.991Z,31.63
2022-10-14T05:46:00.699Z,31.80
2022-10-14T05:48:27.744Z,31.97
2022-10-14T05:50:54.715Z,34.80
2022-10-14T05:53:21.652Z,30.40
2022-10-14T05:55:48.668Z,34.70
2022-10-14T05:58:15.692Z,32.30
2022-10-14T06:00:42.586Z,30.30
2022-10-14T06:03:13.196Z,36.40
2022-10-14T06:05:40.224Z,27.17
2022-10-14T06:08:07.183Z,34.53
2022-10-14T06:10:35.968Z,36.27
2022-10-14T06:13:03.079Z,31.07
2022-10-14T06:15:30.031Z,26.47
2022-10-14T06:17:56.958Z,33.47
2022-10-14T06:20:23.954Z,30.27
2022-10-14T06:22:50.880Z,30.60
2022-10-14T06:25:17.809Z,33.80
2022-10-14T06:27:44.745Z,34.30
2022-10-14T06:30:12.599Z,42.33
2022-10-14T06:32:39.520Z,36.10
2022-10-14T06:35:07.261Z,35.43
2022-10-14T06:37:34.235Z,30.40
2022-10-14T06:40:01.227Z,40.63
2022-10-14T06:42:28.248Z,35.00
2022-10-14T06:44:55.174Z,33.20
2022-10-14T06:47:22.086Z,32.87
2022-10-14T06:49:48.983Z,33.67
2022-10-14T06:52:15.925Z,33.13
2022-10-14T06:54:48.045Z,44.20
2022-10-14T06:57:15.860Z,43.97
2022-10-14T06:59:43.068Z,33.70
2022-10-14T07:02:10.779Z,35.07
2022-10-14T07:04:39.308Z,29.80
2022-10-14T07:07:08.508Z,34.97
2022-10-14T07:09:35.473Z,39.65
2022-10-14T07:12:02.393Z,30.83
2022-10-14T07:14:29.329Z,34.45
2022-10-14T07:16:56.241Z,28.77
2022-10-14T07:19:23.184Z,30.70
2022-10-14T07:21:50.201Z,34.42
2022-10-14T07:24:17.164Z,34.13
2022-10-14T07:26:44.111Z,41.45
2022-10-14T07:29:11.082Z,32.90
2022-10-14T07:31:38.010Z,40.92
2022-10-14T07:34:05.140Z,31.92
2022-10-14T07:36:32.066Z,34.85
2022-10-14T07:38:59.049Z,36.33
2022-10-14T07:41:26.639Z,29.40
2022-10-14T07:44:02.022Z,28.23
2022-10-14T07:46:32.293Z,31.52
2022-10-14T07:49:13.725Z,32.80
2022-10-14T07:51:42.558Z,30.75
2022-10-14T07:54:19.604Z,29.65
2022-10-14T07:56:49.457Z,28.35
2022-10-14T07:59:18.931Z,27.98
2022-10-14T08:01:51.315Z,24.85
2022-10-14T08:04:18.942Z,30.25
2022-10-14T08:06:48.697Z,31.67
2022-10-14T08:09:16.868Z,35.42
2022-10-14T08:11:44.572Z,31.02
2022-10-14T08:14:12.019Z,37.22
2022-10-14T08:16:40.514Z,29.38
2022-10-14T08:19:14.126Z,31.02
2022-10-14T08:21:42.788Z,26.13
2022-10-14T08:24:10.270Z,27.40
2022-10-14T08:26:53.585Z,28.33
2022-10-14T08:29:22.669Z,33.45
2022-10-14T08:31:51.422Z,28.25
2022-10-14T08:34:21.213Z,34.00
2022-10-14T08:36:49.076Z,34.13
2022-10-14T08:39:19.356Z,26.98
2022-10-14T08:42:07.299Z,26.05
2022-10-14T08:44:43.768Z,29.13
2022-10-14T08:47:26.916Z,25.42
2022-10-14T08:50:10.538Z,28.13
2022-10-14T08:52:50.891Z,26.95
2022-10-14T08:55:50.854Z,29.23
2022-10-14T08:58:39.995Z,32.05
2022-10-14T09:01:31.661Z,31.42
2022-10-14T09:04:07.894Z,24.85
2022-10-14T09:06:38.687Z,32.65
2022-10-14T09:09:28.447Z,25.92
2022-10-14T09:12:01.787Z,24.75
2022-10-14T09:14:37.327Z,30.17
2022-10-14T09:17:20.078Z,27.75
2022-10-14T09:20:23.278Z,25.08
2022-10-14T09:23:15.720Z,37.05
2022-10-14T09:26:07.108Z,25.52
2022-10-14T09:28:38.954Z,25.60
2022-10-14T09:31:10.612Z,26.83
2022-10-14T09:33:42.594Z,28.52
2022-10-14T09:36:21.004Z,26.13
2022-10-14T09:38:52.965Z,28.65
2022-10-14T09:41:30.793Z,23.80
2022-10-14T09:44:22.455Z,27.48
2022-10-14T09:47:08.176Z,33.45
2022-10-14T09:49:47.950Z,29.17
2022-10-14T09:52:24.444Z,32.20
2022-10-14T09:54:58.668Z,30.85
2022-10-14T09:57:26.218Z,29.42
2022-10-14T10:00:04.955Z,27.45
2022-10-14T10:02:42.315Z,27.70
2022-10-14T10:05:29.826Z,25.48
2022-10-14T10:08:14.485Z,26.13
2022-10-14T10:10:41.706Z,28.00
2022-10-14T10:13:32.747Z,31.70
2022-10-14T10:16:03.954Z,29.98
2022-10-14T10:18:31.181Z,31.50
2022-10-14T10:21:33.096Z,29.33
2022-10-14T10:24:03.632Z,34.20
2022-10-14T10:26:33.943Z,27.38
2022-10-14T10:29:04.778Z,28.17
2022-10-14T10:31:50.097Z,30.17
2022-10-14T10:34:36.612Z,31.52
2022-10-14T10:37:19.907Z,31.35
2022-10-14T10:40:31.803Z,30.35
2022-10-14T10:43:31.435Z,33.38
2022-10-14T10:46:28.285Z,33.22
2022-10-14T10:49:03.586Z,30.00
2022-10-14T10:51:49.206Z,28.75
2022-10-14T10:55:11.983Z,35.85
2022-10-14T10:58:14.418Z,24.60
2022-10-14T11:01:50.113Z,23.95
2022-10-14T11:04:46.753Z,27.27
2022-10-14T11:07:51.678Z,27.10
2022-10-14T11:10:57.594Z,31.20
2022-10-14T11:13:49.432Z,30.75
2022-10-14T11:16:35.371Z,29.63
2022-10-14T11:19:22.202Z,29.98
2022-10-14T11:22:24.398Z,35.65
2022-10-14T11:25:25.622Z,29.08
2022-10-14T11:28:15.885Z,31.58
2022-10-14T11:31:27.480Z,30.00
2022-10-14T11:34:29.210Z,29.38
2022-10-14T11:37:43.059Z,31.00
2022-10-14T11:40:40.761Z,29.63
2022-10-14T11:43:13.637Z,28.63
2022-10-14T11:46:05.275Z,23.90
2022-10-14T11:49:04.004Z,28.98
2022-10-14T11:51:42.249Z,30.00
2022-10-14T11:54:53.817Z,24.90
2022-10-14T11:57:58.245Z,24.73
2022-10-14T12:00:31.037Z,26.08
2022-10-14T12:03:24.113Z,41.70
2022-10-14T12:06:04.996Z,30.92
2022-10-14T12:09:14.925Z,26.33
2022-10-14T12:11:52.340Z,29.00
2022-10-14T12:14:36.313Z,28.80
2022-10-14T12:17:19.256Z,26.02
2022-10-14T12:19:46.596Z,27.95
2022-10-14T12:22:21.358Z,27.02
2022-10-14T12:24:56.505Z,39.17
2022-10-14T12:27:27.224Z,27.23
2022-10-14T12:29:58.942Z,36.15
2022-10-14T12:32:31.017Z,26.60
2022-10-14T12:35:02.255Z,30.33
2022-10-14T12:37:32.680Z,27.25
2022-10-14T12:40:02.944Z,27.67
2022-10-14T12:42:36.455Z,31.77
2022-10-14T12:45:16.642Z,29.90
2022-10-14T12:47:44.108Z,33.53
2022-10-14T12:50:14.074Z,32.60
2022-10-14T12:52:46.518Z,25.00
2022-10-14T12:55:23.919Z,26.13
2022-10-14T12:58:02.910Z,27.63
2022-10-14T13:00:39.607Z,27.88
2022-10-14T13:03:20.484Z,28.80
2022-10-14T13:05:47.972Z,31.30
2022-10-14T13:08:21.101Z,25.65
2022-10-14T13:10:50.480Z,33.30
2022-10-14T13:13:40.042Z,34.80
2022-10-14T13:16:25.751Z,30.92
2022-10-14T13:19:01.329Z,26.20
2022-10-14T13:21:37.456Z,24.80
2022-10-14T13:24:24.155Z,29.63
2022-10-14T13:26:53.894Z,30.63
2022-10-14T13:29:20.694Z,32.10
2022-10-14T13:31:54.136Z,27.52
2022-10-14T13:34:36.403Z,34.08
2022-10-14T13:37:32.586Z,32.85
2022-10-14T13:40:17.619Z,33.00
2022-10-14T13:42:52.109Z,32.17
2022-10-14T13:45:22.454Z,29.77
2022-10-14T13:47:50.232Z,27.98
2022-10-14T13:50:24.163Z,30.88
2022-10-14T13:52:58.796Z,31.95
2022-10-14T13:55:27.207Z,28.88
2022-10-14T13:58:12.567Z,39.78
2022-10-14T14:00:51.499Z,26.65
2022-10-14T14:03:43.435Z,31.60
2022-10-14T14:06:17.457Z,26.08
2022-10-14T14:08:56.807Z,28.23
2022-10-14T14:11:35.343Z,32.45
2022-10-14T14:14:31.017Z,27.95
2022-10-14T14:17:01.243Z,32.20
2022-10-14T14:19:37.751Z,29.17
2022-10-14T14:22:29.372Z,28.75
2022-10-14T14:25:33.308Z,30.67
2022-10-14T14:28:05.805Z,30.35
2022-10-14T14:30:38.857Z,33.42
2022-10-14T14:33:12.281Z,43.63
2022-10-14T14:35:55.891Z,32.60
2022-10-14T14:38:32.752Z,32.00
2022-10-14T14:41:16.819Z,28.08
2022-10-14T14:43:53.355Z,27.02
2022-10-14T14:46:40.250Z,33.88
2022-10-14T14:49:11.748Z,35.05
2022-10-14T14:51:40.622Z,31.15
2022-10-14T14:54:08.388Z,32.35
2022-10-14T14:56:44.202Z,32.83
2022-10-14T14:59:36.591Z,33.58
2022-10-14T15:02:14.873Z,35.80
2022-10-14T15:04:42.322Z,31.92
2022-10-14T15:07:21.556Z,31.60
2022-10-14T15:09:55.787Z,27.65
2022-10-14T15:12:31.172Z,29.92
2022-10-14T15:15:00.635Z,25.52
2022-10-14T15:17:39.797Z,28.30
2022-10-14T15:20:27.297Z,24.73
2022-10-14T15:22:54.250Z,30.02
2022-10-14T15:25:32.163Z,27.02
2022-10-14T15:28:02.010Z,29.98
2022-10-14T15:30:36.647Z,35.15
2022-10-14T15:33:19.324Z,29.80
2022-10-14T15:36:00.435Z,29.25
2022-10-14T15:38:28.234Z,24.27
2022-10-14T15:40:55.881Z,33.33
2022-10-14T15:43:25.890Z,27.15
2022-10-14T15:46:14.540Z,28.95
2022-10-14T15:48:54.924Z,25.50
2022-10-14T15:51:23.593Z,23.10
2022-10-14T15:53:51.841Z,28.77
2022-10-14T15:56:21.023Z,31.10
2022-10-14T15:58:48.824Z,32.53
2022-10-14T16:01:23.790Z,27.55
2022-10-14T16:03:55.543Z,29.98
2022-10-14T16:06:24.184Z,28.27
2022-10-14T16:08:51.191Z,34.13
2022-10-14T16:11:28.892Z,24.27
2022-10-14T16:13:56.796Z,24.70
2022-10-14T16:16:50.296Z,25.83
2022-10-14T16:19:17.269Z,24.48
2022-10-14T16:21:44.333Z,29.35
2022-10-14T16:24:20.987Z,28.10
2022-10-14T16:26:51.378Z,30.85
2022-10-14T16:29:20.302Z,33.08
2022-10-14T16:31:50.057Z,24.95
2022-10-14T16:34:19.306Z,31.88
2022-10-14T16:36:48.855Z,25.77
2022-10-14T16:39:17.290Z,30.30
2022-10-14T16:41:44.822Z,30.02
2022-10-14T16:44:27.615Z,31.13
2022-10-14T16:47:19.571Z,32.00
2022-10-14T16:49:51.119Z,28.83
2022-10-14T16:52:19.168Z,35.03
2022-10-14T16:54:46.456Z,34.45
2022-10-14T16:57:14.213Z,30.80
2022-10-14T16:59:41.678Z,27.70
2022-10-14T17:02:14.268Z,33.28
2022-10-14T17:04:42.146Z,37.00
2022-10-14T17:07:10.268Z,30.80
2022-10-14T17:09:39.419Z,28.10
2022-10-14T17:12:11.179Z,36.58
2022-10-14T17:14:41.026Z,35.92
2022-10-14T17:17:08.009Z,31.77
2022-10-14T17:19:35.459Z,30.25
2022-10-14T17:22:03.219Z,34.20
2022-10-14T17:24:30.527Z,31.92
2022-10-14T17:26:58.675Z,33.42
2022-10-14T17:29:25.636Z,34.78
2022-10-14T17:31:52.606Z,38.72
2022-10-14T17:34:19.539Z,31.40
2022-10-14T17:36:46.539Z,35.05
2022-10-14T17:39:18.946Z,37.78
2022-10-14T17:41:51.568Z,30.25
2022-10-14T17:44:18.886Z,33.50
2022-10-14T17:46:45.966Z,35.50
2022-10-14T17:49:13.247Z,36.25
2022-10-14T17:51:40.190Z,32.08
2022-10-14T17:54:11.030Z,34.88
2022-10-14T17:56:38.975Z,32.38
2022-10-14T17:59:11.106Z,35.92
2022-10-14T18:04:25.403Z,35.28
2022-10-14T18:06:54.185Z,36.17
2022-10-14T18:09:21.290Z,41.45
2022-10-14T18:14:41.534Z,41.58
2022-10-14T18:17:12.836Z,41.42
2022-10-14T18:19:41.111Z,43.85
2022-10-14T18:22:08.328Z,43.03
2022-10-14T18:24:38.728Z,35.40
2022-10-14T18:27:05.876Z,35.75
2022-10-14T18:29:32.820Z,39.40
2022-10-14T18:31:59.800Z,36.70
2022-10-14T18:34:28.263Z,34.25
2022-10-14T18:36:55.204Z,35.78
2022-10-14T18:39:22.478Z,37.47
2022-10-14T18:41:49.645Z,38.03
2022-10-14T18:44:16.689Z,38.72
2022-10-14T18:46:43.702Z,35.05
2022-10-14T18:49:11.899Z,37.97
2022-10-14T18:51:41.010Z,38.50
2022-10-14T18:54:19.174Z,40.13
2022-10-14T18:56:46.672Z,40.22
2022-10-14T18:59:23.149Z,36.92
2022-10-14T19:01:54.136Z,41.15
2022-10-14T19:04:24.994Z,40.30
2022-10-14T19:06:52.064Z,37.78
2022-10-14T19:09:22.364Z,36.17
2022-10-14T19:11:53.022Z,35.72
2022-10-14T19:14:20.912Z,43.60
2022-10-14T19:16:49.571Z,38.92
2022-10-14T19:19:19.799Z,37.47
2022-10-14T19:21:50.741Z,39.00
2022-10-14T19:24:18.130Z,38.55
2022-10-14T19:26:47.274Z,36.88
2022-10-14T19:29:15.981Z,36.05
2022-10-14T19:31:44.087Z,44.55
2022-10-14T19:34:15.321Z,37.20
2022-10-14T19:36:44.097Z,37.53
2022-10-14T19:39:15.194Z,38.83
2022-10-14T19:41:47.266Z,42.05
2022-10-14T19:44:16.087Z,36.13
2022-10-14T19:46:44.397Z,38.45
2022-10-14T19:49:14.418Z,39.75
2022-10-14T19:51:41.670Z,41.70
2022-10-14T19:54:12.434Z,38.88
2022-10-14T19:56:39.710Z,39.17
2022-10-14T19:59:06.949Z,31.35
2022-10-14T20:01:34.277Z,38.80
2022-10-14T20:04:02.373Z,38.80
2022-10-14T20:06:33.779Z,39.83
2022-10-14T20:09:00.983Z,38.78
2022-10-14T20:11:28.619Z,41.90
2022-10-14T20:13:55.600Z,41.53
2022-10-14T20:16:22.721Z,40.72
2022-10-14T20:18:49.660Z,37.03
2022-10-14T20:21:16.989Z,41.05
2022-10-14T20:23:44.649Z,39.30
2022-10-14T20:26:21.055Z,43.65
2022-10-14T20:28:49.870Z,39.28
2022-10-14T20:31:21.067Z,39.63
2022-10-14T20:33:48.439Z,40.38
2022-10-14T20:36:18.725Z,40.58
2022-10-14T20:38:47.212Z,39.28
2022-10-14T20:41:22.804Z,39.72
2022-10-14T20:43:50.502Z,38.85
2022-10-14T20:46:18.347Z,42.92
2022-10-14T20:48:46.549Z,35.95
2022-10-14T20:51:19.995Z,45.90
2022-10-14T20:53:46.969Z,39.80
2022-10-14T20:56:14.814Z,37.70
2022-10-14T20:58:42.534Z,36.45
2022-10-14T21:01:16.065Z,42.80
2022-10-14T21:03:45.511Z,36.83
2022-10-14T21:06:17.082Z,40.58
2022-10-14T21:08:44.308Z,42.55
2022-10-14T21:11:16.037Z,42.25
2022-10-14T21:13:58.557Z,38.33
2022-10-14T21:16:32.307Z,39.92
2022-10-14T21:19:05.464Z,41.28
2022-10-14T21:21:49.313Z,39.08
2022-10-14T21:24:18.524Z,43.72
2022-10-14T21:26:48.579Z,41.60
2022-10-14T21:29:15.725Z,44.42
2022-10-14T21:31:43.193Z,41.47
2022-10-14T21:34:11.618Z,37.28
2022-10-14T21:36:39.790Z,45.05
2022-10-14T21:39:13.484Z,44.00
2022-10-14T21:41:41.647Z,39.78
2022-10-14T21:44:13.461Z,39.55
2022-10-14T21:46:40.550Z,43.55
2022-10-14T21:49:11.095Z,52.08
2022-10-14T21:51:38.983Z,43.95
2022-10-14T21:54:06.438Z,40.42
2022-10-14T21:56:33.462Z,45.78
2022-10-14T21:59:00.355Z,43.25
2022-10-14T22:01:29.858Z,40.72
2022-10-14T22:04:06.378Z,47.70
2022-10-14T22:06:35.806Z,41.95
2022-10-14T22:09:06.123Z,40.30
2022-10-14T22:11:40.168Z,49.33
2022-10-14T22:14:12.509Z,42.38
2022-10-14T22:16:39.856Z,48.63
2022-10-14T22:19:07.375Z,42.95
2022-10-14T22:21:36.984Z,41.10
2022-10-14T22:24:05.392Z,47.25
2022-10-14T22:26:33.316Z,43.50
2022-10-14T22:29:06.381Z,44.90
2022-10-14T22:31:34.662Z,43.67
2022-10-14T22:34:04.582Z,48.67
2022-10-14T22:36:32.565Z,43.40
2022-10-14T22:39:01.932Z,43.45
2022-10-14T22:41:34.980Z,43.28
2022-10-14T22:44:05.061Z,43.55
2022-10-14T22:46:35.069Z,48.50
2022-10-14T22:49:02.474Z,44.72
2022-10-14T22:51:40.622Z,46.63
2022-10-14T22:54:09.104Z,48.30
2022-10-14T22:56:36.695Z,43.95
2022-10-14T22:59:11.509Z,50.00
2022-10-14T23:01:41.367Z,42.22
2022-10-14T23:04:10.007Z,48.20
2022-10-14T23:06:37.281Z,45.97
2022-10-14T23:09:04.430Z,49.83
2022-10-14T23:11:32.246Z,45.72
2022-10-14T23:14:01.568Z,46.67
2022-10-14T23:16:31.639Z,46.08
2022-10-14T23:18:59.648Z,48.25
2022-10-14T23:21:33.295Z,43.17
2022-10-14T23:24:04.733Z,47.00
2022-10-14T23:26:34.461Z,47.97
2022-10-14T23:29:09.956Z,50.65
2022-10-14T23:31:39.207Z,45.25
2022-10-14T23:34:11.132Z,48.77
2022-10-14T23:36:38.297Z,52.03
2022-10-14T23:39:06.212Z,47.28
2022-10-14T23:41:33.139Z,44.28
2022-10-14T23:44:00.148Z,45.03
2022-10-14T23:46:27.083Z,53.22
2022-10-14T23:49:06.841Z,48.08
2022-10-14T23:51:41.228Z,47.20
2022-10-14T23:54:08.637Z,54.47
2022-10-14T23:56:35.573Z,49.45
2022-10-14T23:59:02.494Z,52.90
